Time;durP1;ratioP1;P1;durP2;ratioP2;P2;SDS_P1;SDS_P2;PMS_P1;PMS_P2;Temp;Humidity;BMP_temperature;BMP_pressure;BME280_temperature;BME280_humidity;BME280_pressure;Samples;Min_cycle;Max_cycle;Signal;HPM_P1;HPM_P2
2022/09/19 00:01:57;;;;;;;1.97;1.43;;;9.70;99.90;;;-141.84;85.06;18440.22;5095189;28;20219;-62
2022/09/19 00:04:29;;;;;;;1.53;1.37;;;9.60;99.90;;;-141.84;85.58;18438.19;5095182;28;20706;-63
2022/09/19 00:06:58;;;;;;;2.40;1.63;;;9.60;99.90;;;-141.84;86.05;18421.91;5095361;28;20208;-66
2022/09/19 00:09:31;;;;;;;4.13;1.43;;;9.60;99.90;;;-141.84;85.44;18387.38;5095532;28;20257;-62
2022/09/19 00:12:00;;;;;;;1.97;1.57;;;9.60;99.90;;;-141.84;86.67;18389.41;5095002;28;20254;-64
2022/09/19 00:14:31;;;;;;;3.33;1.70;;;9.60;99.90;;;-141.84;85.94;18432.09;5094905;28;20223;-63
2022/09/19 00:17:06;;;;;;;3.60;1.77;;;9.60;99.90;;;-141.84;85.63;18389.41;5095109;28;20228;-64
2022/09/19 00:19:35;;;;;;;3.07;1.70;;;9.60;99.90;;;-141.84;86.01;18379.25;5094769;28;20219;-63
2022/09/19 00:22:04;;;;;;;3.37;2.03;;;9.60;99.90;;;-141.84;86.40;18373.16;5094723;28;20780;-63
2022/09/19 00:24:49;;;;;;;1.70;1.60;;;9.50;99.90;;;-141.84;85.56;18383.31;5094637;28;20203;-62
2022/09/19 00:27:22;;;;;;;2.90;1.60;;;9.60;99.90;;;-141.84;86.32;18383.31;5094986;28;20599;-62
2022/09/19 00:29:52;;;;;;;3.07;2.47;;;9.50;99.90;;;-141.84;86.40;18397.53;5094614;28;20228;-63
2022/09/19 00:32:22;;;;;;;4.07;2.70;;;9.50;99.90;;;-141.84;86.20;18391.44;5094627;28;20224;-63
2022/09/19 00:34:54;;;;;;;2.60;2.30;;;9.60;99.90;;;-141.84;86.53;18381.28;5094703;28;20220;-62
2022/09/19 00:37:22;;;;;;;3.23;2.93;;;9.50;99.90;;;-141.84;87.70;18397.53;5094539;28;20220;-62
2022/09/19 00:39:52;;;;;;;5.03;3.20;;;9.50;99.90;;;-141.84;87.01;18373.16;5094341;28;20274;-62
2022/09/19 00:42:23;;;;;;;3.97;3.10;;;9.50;99.90;;;-141.84;86.57;18411.75;5095128;28;20223;-63
2022/09/19 00:44:59;;;;;;;2.97;2.77;;;9.60;99.90;;;-141.84;86.18;18342.69;5094473;28;20250;-63
2022/09/19 00:47:35;;;;;;;3.60;3.00;;;9.60;99.90;;;-141.84;86.56;18399.56;5094333;28;20231;-62
2022/09/19 00:50:13;;;;;;;3.53;2.37;;;9.50;99.90;;;-141.84;87.27;18379.25;5094290;28;20219;-62
2022/09/19 00:52:46;;;;;;;3.87;2.30;;;9.50;99.90;;;-141.84;87.92;18363.00;5093758;28;20689;-63
2022/09/19 00:55:17;;;;;;;2.90;2.33;;;9.50;99.90;;;-141.84;87.84;18360.97;5093129;28;20718;-61
2022/09/19 00:57:59;;;;;;;2.60;2.40;;;9.50;99.90;;;-141.84;87.59;18348.78;5094469;28;20200;-62
2022/09/19 01:00:27;;;;;;;2.33;2.10;;;9.60;99.90;;;-141.84;87.80;18316.28;5094708;28;20199;-62
2022/09/19 01:02:55;;;;;;;3.60;2.30;;;9.50;99.90;;;-141.84;88.13;18324.41;5093997;28;20440;-62
2022/09/19 01:05:50;;;;;;;3.20;1.93;;;9.50;99.90;;;-141.84;88.38;18324.41;5094089;28;20311;-62
2022/09/19 01:09:03;;;;;;;3.10;1.77;;;9.60;99.90;;;-141.84;87.91;18334.56;5093782;28;20699;-63
2022/09/19 01:11:57;;;;;;;1.80;1.70;;;9.60;99.90;;;-141.84;87.74;18322.38;5093779;28;20231;-62
2022/09/19 01:14:56;;;;;;;2.53;2.20;;;9.60;99.90;;;-141.84;87.25;18304.09;5093687;28;20251;-62
2022/09/19 01:17:31;;;;;;;2.10;1.80;;;9.60;99.90;;;-141.84;87.65;18326.44;5093780;28;20281;-62
2022/09/19 01:20:54;;;;;;;2.30;2.10;;;9.50;99.90;;;-141.84;87.72;18328.47;5093629;28;20224;-62
2022/09/19 01:23:57;;;;;;;2.83;1.83;;;9.60;99.90;;;-141.84;87.84;18293.94;5093301;28;20231;-62
2022/09/19 01:26:59;;;;;;;2.67;2.00;;;9.60;99.90;;;-141.84;87.73;18326.44;5093476;28;20223;-62
2022/09/19 01:29:37;;;;;;;3.70;2.23;;;9.60;99.90;;;-141.84;87.92;18312.22;5093392;28;20262;-62
2022/09/19 01:32:14;;;;;;;2.43;2.23;;;9.60;99.90;;;-141.84;88.14;18322.38;5094038;28;20787;-62
2022/09/19 01:34:49;;;;;;;3.97;2.30;;;9.60;99.90;;;-141.84;88.25;18322.38;5093738;28;20740;-62
2022/09/19 01:37:27;;;;;;;2.87;2.13;;;9.60;99.90;;;-141.84;88.92;18298.00;5093577;28;20302;-62
2022/09/19 01:40:00;;;;;;;2.73;2.37;;;9.60;99.90;;;-141.84;88.54;18310.19;5093297;28;20188;-62
2022/09/19 01:42:28;;;;;;;4.10;2.50;;;9.60;99.90;;;-141.84;88.75;18344.72;5094175;28;20192;-62
2022/09/19 01:44:58;;;;;;;5.30;2.43;;;9.70;99.90;;;-141.84;88.82;18304.09;5093091;28;20270;-62
2022/09/19 01:47:38;;;;;;;3.00;2.70;;;9.70;99.90;;;-141.84;88.74;18285.81;5093145;28;20235;-64
2022/09/19 01:50:17;;;;;;;3.20;2.63;;;9.70;99.90;;;-141.84;88.92;18298.00;5093101;28;20648;-63
2022/09/19 01:53:01;;;;;;;4.00;2.87;;;9.70;99.90;;;-141.84;88.50;18330.50;5093019;28;20223;-63
2022/09/19 01:55:40;;;;;;;3.23;2.67;;;9.70;99.90;;;-141.84;88.62;18285.81;5092812;28;20223;-63
2022/09/19 01:58:18;;;;;;;4.00;3.20;;;9.70;99.90;;;-141.84;87.89;18310.19;5092872;28;20220;-62
2022/09/19 02:01:02;;;;;;;3.00;2.70;;;9.70;99.90;;;-141.84;87.48;18306.13;5093068;28;20184;-62
2022/09/19 02:03:46;;;;;;;6.97;3.10;;;9.70;99.90;;;-141.84;88.08;18298.00;5093554;28;20230;-62
2022/09/19 02:06:23;;;;;;;6.17;3.47;;;9.80;99.90;;;-141.84;88.11;18298.00;5092875;28;20583;-62
2022/09/19 02:09:00;;;;;;;4.57;3.43;;;9.80;99.90;;;-141.84;88.41;18308.16;5092751;28;20220;-62
2022/09/19 02:11:28;;;;;;;6.93;3.60;;;9.70;99.90;;;-141.84;87.56;18312.22;5092412;28;20223;-63
2022/09/19 02:14:16;;;;;;;4.70;3.43;;;9.80;99.90;;;-141.84;88.00;18304.09;5092642;28;20277;-62
2022/09/19 02:16:58;;;;;;;5.70;3.57;;;9.80;99.90;;;-141.84;87.48;18298.00;5092714;28;20227;-63
2022/09/19 02:19:33;;;;;;;7.43;3.83;;;9.80;99.90;;;-141.84;87.79;18328.47;5092491;28;20228;-63
2022/09/19 02:22:08;;;;;;;5.63;4.33;;;9.80;99.90;;;-141.84;88.27;18273.63;5092659;28;20202;-62
2022/09/19 02:24:39;;;;;;;5.30;3.90;;;9.80;99.90;;;-141.84;88.60;18281.75;5092772;28;20211;-64
2022/09/19 02:27:17;;;;;;;5.30;4.60;;;9.80;99.90;;;-141.84;88.22;18291.91;5092429;28;20223;-62
2022/09/19 02:29:50;;;;;;;6.93;3.90;;;9.80;99.90;;;-141.84;88.03;18277.69;5092438;28;20231;-63
2022/09/19 02:32:21;;;;;;;6.57;3.60;;;9.80;99.90;;;-141.84;88.31;18275.66;5092143;28;20224;-62
2022/09/19 02:34:53;;;;;;;5.70;4.10;;;9.80;99.90;;;-141.84;88.33;18281.75;5092286;28;20223;-62
2022/09/19 02:37:30;;;;;;;5.40;4.00;;;9.80;99.90;;;-141.84;88.37;18275.66;5092083;28;20220;-63
2022/09/19 02:40:05;;;;;;;6.33;4.43;;;9.80;99.90;;;-141.84;87.86;18279.72;5092406;28;20187;-62
2022/09/19 02:42:46;;;;;;;4.87;4.33;;;9.90;99.90;;;-141.84;87.02;18279.72;5092859;28;20187;-63
2022/09/19 02:45:20;;;;;;;6.07;4.27;;;9.90;99.90;;;-141.84;87.48;18287.84;5092266;28;20203;-62
2022/09/19 02:48:01;;;;;;;6.83;4.17;;;9.90;99.90;;;-141.84;87.60;18308.16;5092056;28;20297;-63
2022/09/19 02:50:39;;;;;;;5.03;4.07;;;9.90;99.90;;;-141.84;88.42;18289.88;5091797;28;21062;-61
2022/09/19 02:53:13;;;;;;;4.83;4.20;;;9.90;99.90;;;-141.84;88.86;18247.22;5091689;28;20228;-62
2022/09/19 02:55:49;;;;;;;6.07;4.30;;;9.90;99.90;;;-141.84;89.13;18289.88;5091608;28;20737;-63
2022/09/19 02:58:19;;;;;;;6.23;4.07;;;9.90;99.90;;;-141.84;89.18;18312.22;5092044;28;20227;-62
2022/09/19 03:00:52;;;;;;;5.10;3.83;;;9.90;99.90;;;-141.84;89.25;18271.59;5091866;28;20192;-62
2022/09/19 03:06:17;;;;;;;5.27;3.90;;;9.90;99.90;;;-141.84;88.63;18273.63;5092068;28;20200;-61
2022/09/19 03:08:50;;;;;;;6.43;3.83;;;9.80;99.90;;;-141.84;89.11;18289.88;5091570;28;20224;-62
2022/09/19 03:11:22;;;;;;;4.33;3.87;;;9.80;99.90;;;-141.84;89.57;18283.78;5091537;28;20235;-62
2022/09/19 03:13:50;;;;;;;6.27;3.97;;;9.90;99.90;;;-141.84;89.41;18289.88;5091336;28;20188;-62
2022/09/19 03:16:26;;;;;;;5.47;3.70;;;9.80;99.90;;;-141.84;88.46;18279.72;5091005;28;20575;-63
2022/09/19 03:18:57;;;;;;;3.73;3.43;;;9.90;99.90;;;-141.84;88.19;18249.25;5091627;28;20666;-61
2022/09/19 03:21:26;;;;;;;7.33;4.27;;;9.90;99.90;;;-141.84;87.69;18265.50;5091915;28;20632;-63
2022/09/19 03:23:58;;;;;;;4.73;4.20;;;9.90;99.90;;;-141.84;87.58;18263.47;5091194;28;20220;-63
2022/09/19 03:26:30;;;;;;;4.60;3.97;;;9.90;99.90;;;-141.84;88.20;18269.56;5091165;28;20707;-62
2022/09/19 03:28:59;;;;;;;9.07;4.10;;;9.90;99.90;;;-141.84;88.31;18289.88;5091525;28;20300;-62
2022/09/19 03:31:28;;;;;;;4.57;3.80;;;9.90;99.90;;;-141.84;88.58;18271.59;5091486;28;20223;-62
2022/09/19 03:33:58;;;;;;;6.57;3.73;;;9.90;99.90;;;-141.84;87.72;18275.66;5091575;28;20196;-62
2022/09/19 03:36:28;;;;;;;9.00;4.40;;;9.90;99.90;;;-141.84;87.15;18308.16;5091676;28;20458;-62
2022/09/19 03:39:02;;;;;;;6.90;3.70;;;9.90;99.90;;;-141.84;87.08;18275.66;5091187;28;20226;-62
2022/09/19 03:41:31;;;;;;;5.37;3.90;;;9.90;99.90;;;-141.84;87.11;18275.66;5090908;28;20254;-62
2022/09/19 03:44:01;;;;;;;4.70;3.93;;;10.00;99.90;;;-141.84;87.03;18265.50;5091307;28;20723;-63
2022/09/19 03:46:31;;;;;;;5.57;3.87;;;9.90;99.90;;;-141.84;87.18;18269.56;5091280;28;20230;-62
2022/09/19 03:49:02;;;;;;;3.73;3.30;;;9.90;99.90;;;-141.84;87.92;18293.94;5091335;28;20208;-63
2022/09/19 03:51:33;;;;;;;5.63;4.17;;;9.90;99.90;;;-141.84;88.11;18269.56;5091792;28;20267;-61
2022/09/19 03:54:02;;;;;;;3.97;3.67;;;10.00;99.90;;;-141.84;86.60;18291.91;5091066;28;20232;-63
2022/09/19 03:56:30;;;;;;;7.53;4.00;;;10.00;99.90;;;-141.84;86.28;18269.56;5090921;28;20228;-62
2022/09/19 03:58:58;;;;;;;5.90;3.80;;;10.00;99.90;;;-141.84;86.38;18275.66;5091290;28;20220;-62
2022/09/19 04:01:26;;;;;;;4.63;3.90;;;10.00;99.90;;;-141.84;86.55;18293.94;5091053;28;20219;-64
2022/09/19 04:03:54;;;;;;;5.53;3.87;;;10.00;99.90;;;-141.84;86.93;18302.06;5091418;28;20200;-62
2022/09/19 04:06:24;;;;;;;5.57;4.30;;;10.00;99.90;;;-141.84;86.97;18285.81;5091447;28;20207;-63
2022/09/19 04:08:52;;;;;;;5.00;4.50;;;10.00;99.90;;;-141.84;86.90;18289.88;5090798;28;20251;-61
2022/09/19 04:11:20;;;;;;;5.57;4.57;;;10.00;99.90;;;-141.84;87.53;18281.75;5090979;28;20220;-62
2022/09/19 04:13:51;;;;;;;6.97;3.93;;;10.00;99.90;;;-141.84;87.52;18283.78;5090911;28;20223;-63
2022/09/19 04:16:19;;;;;;;4.47;3.93;;;10.10;99.90;;;-141.84;86.00;18273.63;5090873;28;20250;-62
2022/09/19 04:18:50;;;;;;;4.93;3.93;;;10.10;99.90;;;-141.84;85.92;18304.09;5091188;28;20299;-62
2022/09/19 04:21:19;;;;;;;6.50;3.63;;;10.10;99.90;;;-141.84;85.31;18287.84;5091509;28;20184;-62
2022/09/19 04:23:48;;;;;;;5.47;4.50;;;10.20;99.90;;;-141.84;85.56;18295.97;5090505;28;20227;-62
2022/09/19 04:26:16;;;;;;;4.57;3.80;;;10.20;99.90;;;-141.84;84.79;18306.13;5090514;28;20228;-62
2022/09/19 04:28:46;;;;;;;5.93;3.80;;;10.20;99.90;;;-141.84;85.58;18277.69;5092967;28;20228;-61
2022/09/19 04:31:14;;;;;;;4.57;4.07;;;10.10;99.90;;;-141.84;86.77;18316.28;5094995;28;20223;-63
2022/09/19 04:33:42;;;;;;;4.40;3.80;;;10.10;99.90;;;-141.84;86.50;18283.78;5094659;28;20203;-63
2022/09/19 04:36:12;;;;;;;4.43;4.03;;;10.10;99.90;;;-141.84;86.76;18295.97;5095430;28;20208;-62
2022/09/19 04:38:41;;;;;;;7.30;4.67;;;10.10;99.90;;;-141.84;87.09;18293.94;5094451;28;20220;-63
2022/09/19 04:41:10;;;;;;;6.90;4.97;;;10.10;99.90;;;-141.84;87.69;18287.84;5094117;28;20236;-62
2022/09/19 04:43:38;;;;;;;5.70;5.07;;;10.00;99.90;;;-141.84;87.32;18306.13;5094426;28;20273;-63
2022/09/19 04:46:07;;;;;;;4.50;4.10;;;10.00;99.90;;;-141.84;87.28;18263.47;5094310;28;20667;-62
2022/09/19 04:48:35;;;;;;;5.17;4.50;;;10.00;99.90;;;-141.84;87.61;18300.03;5094804;28;20203;-63
2022/09/19 04:51:05;;;;;;;5.87;4.73;;;10.00;99.90;;;-141.84;88.26;18279.72;5094101;28;20285;-62
2022/09/19 04:53:38;;;;;;;5.83;5.13;;;10.00;99.90;;;-141.84;87.14;18283.78;5093812;28;20224;-63
2022/09/19 04:56:06;;;;;;;6.50;4.73;;;10.00;99.90;;;-141.84;87.04;18253.31;5093977;28;20220;-63
2022/09/19 04:58:37;;;;;;;5.63;4.83;;;10.00;99.90;;;-141.84;87.73;18275.66;5093857;28;20654;-62
2022/09/19 05:01:05;;;;;;;6.90;5.00;;;10.00;99.90;;;-141.84;88.13;18267.53;5093994;28;20227;-63
2022/09/19 05:03:35;;;;;;;7.70;5.20;;;10.00;99.90;;;-141.84;88.41;18259.41;5094585;28;20231;-63
2022/09/19 05:06:05;;;;;;;7.53;5.90;;;10.00;99.90;;;-141.84;88.67;18273.63;5093862;28;20235;-62
2022/09/19 05:08:34;;;;;;;7.83;5.20;;;10.10;99.90;;;-141.84;89.07;18257.38;5093602;28;20227;-62
2022/09/19 05:11:06;;;;;;;5.50;4.90;;;10.10;99.90;;;-141.84;88.24;18269.56;5093830;28;20262;-63
2022/09/19 05:13:39;;;;;;;5.90;5.00;;;10.10;99.90;;;-141.84;87.24;18261.44;5093758;28;20227;-62
2022/09/19 05:16:08;;;;;;;6.17;5.00;;;10.10;99.90;;;-141.84;86.93;18273.63;5093654;28;20234;-62
2022/09/19 05:18:37;;;;;;;6.30;4.87;;;10.10;99.90;;;-141.84;87.39;18273.63;5093903;28;20200;-62
2022/09/19 05:21:08;;;;;;;5.73;5.23;;;10.10;99.90;;;-141.84;87.75;18232.97;5093471;28;20223;-62
2022/09/19 05:23:38;;;;;;;5.63;5.10;;;10.10;99.90;;;-141.84;88.68;18271.59;5092962;28;20307;-63
2022/09/19 05:26:10;;;;;;;5.40;4.90;;;10.10;99.90;;;-141.84;88.87;18243.16;5093154;28;20224;-62
2022/09/19 05:28:41;;;;;;;8.23;5.77;;;10.10;99.90;;;-141.84;89.29;18241.13;5093347;28;20220;-63
2022/09/19 05:31:09;;;;;;;5.80;5.00;;;10.10;99.90;;;-141.84;88.93;18249.25;5093675;28;20231;-62
2022/09/19 05:33:37;;;;;;;5.53;5.03;;;10.10;99.90;;;-141.84;89.27;18271.59;5093898;28;20261;-63
2022/09/19 05:36:07;;;;;;;5.73;5.23;;;10.20;99.90;;;-141.84;87.88;18295.97;5092918;28;20741;-62
2022/09/19 05:38:36;;;;;;;6.07;4.70;;;10.30;99.90;;;-141.84;87.24;18300.03;5092714;28;20239;-63
2022/09/19 05:41:05;;;;;;;4.00;3.70;;;10.30;99.90;;;-141.84;86.51;18300.03;5092645;28;20285;-61
2022/09/19 05:43:34;;;;;;;3.17;2.90;;;10.50;99.90;;;-141.84;84.81;18318.31;5093219;28;20228;-62
2022/09/19 05:46:04;;;;;;;3.53;3.23;;;10.50;99.90;;;-141.84;85.45;18298.00;5093545;28;20207;-61
2022/09/19 05:48:32;;;;;;;4.87;3.13;;;10.50;99.90;;;-141.84;84.83;18320.34;5093420;28;20538;-62
2022/09/19 05:51:00;;;;;;;3.10;2.80;;;10.60;99.90;;;-141.84;83.41;18322.38;5092852;28;20224;-61
2022/09/19 05:56:14;;;;;;;2.30;2.10;;;10.60;99.90;;;-141.84;83.20;18312.22;5092984;28;20313;-63
2022/09/19 05:58:42;;;;;;;3.33;2.10;;;10.50;99.90;;;-141.84;82.99;18332.53;5092835;28;20289;-62
2022/09/19 06:01:13;;;;;;;3.33;2.30;;;10.60;99.90;;;-141.84;83.05;18328.47;5092823;28;20356;-62
2022/09/19 06:03:42;;;;;;;2.30;2.10;;;10.60;99.90;;;-141.84;83.36;18334.56;5093393;28;20289;-63
2022/09/19 06:06:13;;;;;;;2.70;1.90;;;10.70;99.90;;;-141.84;82.07;18389.41;5092575;28;20227;-62
2022/09/19 06:08:43;;;;;;;2.87;1.77;;;10.80;99.90;;;-141.84;80.90;18387.38;5092361;28;20239;-61
2022/09/19 06:11:12;;;;;;;2.23;1.60;;;10.90;99.90;;;-141.84;81.20;18411.75;5092432;28;20397;-62
2022/09/19 06:16:26;;;;;;;2.00;1.80;;;11.00;99.90;;;-141.84;80.52;18411.75;5092603;28;20227;-61
2022/09/19 06:18:55;;;;;;;2.33;1.40;;;11.00;99.90;;;-141.84;80.70;18403.63;5092110;28;20675;-61
2022/09/19 06:21:23;;;;;;;1.60;1.50;;;11.10;99.90;;;-141.84;80.83;18383.31;5092841;28;20200;-62
2022/09/19 06:23:51;;;;;;;1.83;1.33;;;11.20;99.90;;;-141.84;79.10;18474.75;5091627;28;20220;-62
2022/09/19 06:26:20;;;;;;;1.20;1.20;;;11.30;99.90;;;-141.84;78.62;18480.84;5091823;28;20251;-61
2022/09/19 06:28:48;;;;;;;1.30;1.20;;;11.30;99.90;;;-141.84;78.54;18488.97;5091843;28;20271;-62
2022/09/19 06:31:16;;;;;;;1.30;1.20;;;11.30;99.90;;;-141.84;79.10;18462.56;5091787;28;20227;-62
2022/09/19 06:33:46;;;;;;;2.07;1.33;;;11.40;99.90;;;-141.84;77.69;18521.47;5092216;28;20591;-63
2022/09/19 06:36:14;;;;;;;1.33;1.23;;;11.40;99.90;;;-141.84;78.29;18515.38;5092654;28;20227;-63
2022/09/19 06:38:43;;;;;;;1.50;1.40;;;11.40;99.90;;;-141.84;77.91;18505.22;5092079;28;20224;-62
2022/09/19 06:41:12;;;;;;;2.63;1.90;;;11.50;99.90;;;-141.84;76.99;18562.09;5091702;28;20231;-63
2022/09/19 06:43:40;;;;;;;2.43;2.23;;;11.50;99.90;;;-141.84;77.83;18576.31;5092324;28;20224;-62
2022/09/19 06:46:10;;;;;;;3.13;2.83;;;11.50;99.90;;;-141.84;77.31;18582.44;5092033;28;20224;-62
2022/09/19 06:48:38;;;;;;;5.30;3.70;;;11.70;99.90;;;-141.84;76.40;18621.03;5092599;28;20206;-62
2022/09/19 06:51:08;;;;;;;5.80;5.23;;;11.70;99.90;;;-141.84;76.00;18606.81;5091075;28;20227;-62
2022/09/19 06:53:36;;;;;;;5.33;4.83;;;11.80;99.90;;;-141.84;76.44;18637.28;5091623;28;20227;-63
2022/09/19 06:56:04;;;;;;;5.73;5.13;;;11.90;99.90;;;-141.84;75.78;18675.88;5089996;28;20282;-62
2022/09/19 06:58:32;;;;;;;6.57;5.83;;;12.00;99.90;;;-141.84;74.26;18734.81;5091686;28;20223;-61
2022/09/19 07:01:02;;;;;;;6.87;6.27;;;12.10;99.90;;;-141.84;74.04;18763.25;5090383;28;20196;-62
2022/09/19 07:03:30;;;;;;;6.93;6.33;;;12.20;99.90;;;-141.84;74.58;18738.88;5092448;28;20712;-63
2022/09/19 07:06:00;;;;;;;7.87;7.00;;;12.30;99.90;;;-141.84;73.48;18793.72;5091476;28;20282;-62
2022/09/19 07:08:30;;;;;;;8.33;7.57;;;12.40;99.90;;;-141.84;73.95;18785.59;5091483;28;20227;-63
2022/09/19 07:10:58;;;;;;;9.50;8.27;;;12.40;99.90;;;-141.84;72.32;18803.88;5091013;28;20239;-62
2022/09/19 07:13:26;;;;;;;10.33;9.33;;;12.50;99.90;;;-141.84;72.77;18791.69;5091400;28;20222;-62
2022/09/19 07:16:02;;;;;;;10.70;9.70;;;12.40;99.90;;;-141.84;73.24;18791.69;5091382;28;20634;-61
2022/09/19 07:18:31;;;;;;;10.97;9.87;;;12.30;99.90;;;-141.84;74.17;18824.22;5092092;28;20185;-63
2022/09/19 07:21:00;;;;;;;12.20;10.93;;;12.30;99.90;;;-141.84;75.03;18740.91;5091113;28;20220;-63
2022/09/19 07:23:30;;;;;;;12.10;10.83;;;12.30;99.90;;;-141.84;74.78;18769.34;5090895;28;20639;-62
2022/09/19 07:25:58;;;;;;;11.67;10.53;;;12.30;99.90;;;-141.84;74.42;18797.78;5090787;28;20246;-61
2022/09/19 07:28:27;;;;;;;11.43;10.40;;;12.20;99.90;;;-141.84;74.47;18738.88;5091600;28;20215;-62
2022/09/19 07:30:57;;;;;;;11.33;10.23;;;12.20;99.90;;;-141.84;74.16;18761.22;5091179;28;20224;-62
2022/09/19 07:33:27;;;;;;;12.10;9.80;;;12.10;99.90;;;-141.84;73.41;18740.91;5091557;28;20196;-62
2022/09/19 07:35:56;;;;;;;11.30;9.40;;;12.10;99.90;;;-141.84;73.50;18769.34;5090878;28;20223;-63
2022/09/19 07:38:26;;;;;;;11.57;10.37;;;12.00;99.90;;;-141.84;74.06;18785.59;5091059;28;20573;-62
2022/09/19 07:40:56;;;;;;;10.83;9.73;;;12.00;99.90;;;-141.84;74.31;18769.34;5090895;28;20227;-62
2022/09/19 07:43:24;;;;;;;11.23;9.23;;;12.00;99.90;;;-141.84;73.83;18751.06;5091121;28;20220;-62
2022/09/19 07:45:54;;;;;;;9.93;8.63;;;12.00;99.90;;;-141.84;73.77;18781.53;5090886;28;20807;-62
2022/09/19 07:48:23;;;;;;;10.33;8.10;;;12.00;99.90;;;-141.84;72.71;18777.47;5091932;28;20219;-62
2022/09/19 07:50:51;;;;;;;9.43;8.13;;;12.00;99.90;;;-141.84;72.15;18812.00;5090845;28;20619;-62
2022/09/19 07:53:25;;;;;;;9.67;8.07;;;11.90;99.90;;;-141.84;72.54;18797.78;5090997;28;20228;-62
2022/09/19 07:55:57;;;;;;;8.37;7.63;;;11.90;99.90;;;-141.84;72.52;18820.16;5090446;28;20273;-63
2022/09/19 07:58:27;;;;;;;8.80;7.90;;;11.90;99.90;;;-141.84;73.31;18793.72;5090924;28;20227;-62
2022/09/19 08:00:58;;;;;;;9.53;7.50;;;11.90;99.90;;;-141.84;72.20;18818.09;5090979;28;20185;-61
2022/09/19 08:03:27;;;;;;;8.50;7.70;;;12.10;99.90;;;-141.84;72.65;18820.16;5093303;28;20658;-62
2022/09/19 08:05:55;;;;;;;8.53;7.50;;;12.00;99.90;;;-141.84;71.81;18852.66;5094992;28;20367;-61
2022/09/19 08:08:24;;;;;;;9.60;7.93;;;12.10;99.90;;;-141.84;72.06;18881.09;5095048;28;20236;-63
2022/09/19 08:10:54;;;;;;;8.50;7.23;;;12.10;99.90;;;-141.84;72.33;18842.50;5094565;28;20228;-62
2022/09/19 08:13:23;;;;;;;8.33;7.53;;;12.20;99.90;;;-141.84;71.99;18852.66;5095082;28;20271;-62
2022/09/19 08:15:51;;;;;;;8.67;7.67;;;12.20;99.90;;;-141.84;72.14;18846.56;5094701;28;20690;-61
2022/09/19 08:18:23;;;;;;;7.60;6.87;;;12.20;99.90;;;-141.84;72.67;18842.50;5095276;28;20257;-62
2022/09/19 08:20:51;;;;;;;8.30;7.30;;;12.30;99.90;;;-141.84;71.60;18933.94;5094720;28;20230;-63
2022/09/19 08:23:21;;;;;;;7.77;6.60;;;12.30;99.90;;;-141.84;72.44;18856.72;5094439;28;20228;-61
2022/09/19 08:25:50;;;;;;;8.10;7.30;;;12.40;99.90;;;-141.84;72.73;18834.38;5094434;28;20605;-62
2022/09/19 08:28:21;;;;;;;7.67;6.87;;;12.40;99.90;;;-141.84;72.01;18885.16;5094483;28;20230;-61
2022/09/19 08:30:50;;;;;;;7.50;6.70;;;12.40;99.90;;;-141.84;71.94;18889.22;5094472;28;20243;-62
2022/09/19 08:33:19;;;;;;;8.67;7.50;;;12.40;99.90;;;-141.84;72.58;18838.44;5094838;28;20203;-62
2022/09/19 08:35:47;;;;;;;7.47;6.57;;;12.50;99.90;;;-141.84;71.20;18899.38;5094343;28;20277;-64
2022/09/19 08:38:15;;;;;;;6.97;6.17;;;12.50;99.90;;;-141.84;71.12;18915.63;5094195;28;20650;-64
2022/09/19 08:41:09;;;;;;;6.83;6.13;;;12.60;99.90;;;-141.84;70.17;18972.53;5094284;28;20231;-63
2022/09/19 08:43:52;;;;;;;7.60;6.03;;;12.70;99.90;;;-141.84;68.71;19108.69;5094545;28;20572;-62
2022/09/19 08:46:29;;;;;;;6.53;5.77;;;12.90;99.90;;;-141.84;68.83;19096.47;5094559;28;20216;-62
2022/09/19 08:49:04;;;;;;;6.67;6.07;;;13.00;99.90;;;-141.84;67.77;19110.72;5094542;28;20192;-63
2022/09/19 08:51:46;;;;;;;7.33;6.13;;;13.10;99.90;;;-141.84;66.92;19196.06;5094726;28;20273;-62
2022/09/19 08:54:20;;;;;;;8.13;6.37;;;13.20;99.90;;;-141.84;66.12;19285.47;5094323;28;20282;-61
2022/09/19 08:56:48;;;;;;;9.07;5.73;;;13.40;99.90;;;-141.84;65.44;19358.63;5093968;28;20224;-62
2022/09/19 08:59:23;;;;;;;5.87;5.37;;;13.50;99.90;;;-141.84;65.40;19360.66;5094190;28;20231;-64
2022/09/19 09:02:01;;;;;;;7.20;5.70;;;13.60;99.90;;;-141.84;65.40;19368.78;5094126;28;20307;-63
2022/09/19 09:04:49;;;;;;;5.87;5.37;;;13.50;99.90;;;-141.84;64.71;19415.50;5093913;28;20779;-62
2022/09/19 09:07:34;;;;;;;5.63;5.22;;;13.60;99.90;;;-141.84;65.12;19374.88;5093652;28;20253;-62
2022/09/19 09:10:32;;;;;;;6.30;5.20;;;13.60;99.90;;;-141.84;65.77;19383.00;5094215;28;20349;-62
2022/09/19 09:13:18;;;;;;;6.47;5.20;;;13.60;99.90;;;-141.84;64.41;19519.16;5093920;28;20201;-62
2022/09/19 09:16:03;;;;;;;5.57;5.00;;;13.70;99.90;;;-141.84;62.46;19671.56;5092866;28;20192;-64
2022/09/19 09:18:58;;;;;;;5.28;4.75;;;13.90;99.90;;;-141.84;62.35;19716.28;5094108;28;20223;-64
2022/09/19 09:21:42;;;;;;;5.35;4.85;;;14.00;99.90;;;-141.84;61.84;19797.59;5094078;28;20211;-63
2022/09/19 09:24:18;;;;;;;5.40;4.90;;;14.30;99.90;;;-141.84;62.10;19811.81;5093541;28;20707;-63
2022/09/19 09:27:11;;;;;;;5.13;4.57;;;14.50;99.90;;;-141.84;61.50;19870.75;5093023;28;20313;-63
2022/09/19 09:29:44;;;;;;;5.03;4.28;;;14.70;99.90;;;-141.84;63.24;19726.44;5093701;28;20231;-63
2022/09/19 09:32:20;;;;;;;4.97;4.53;;;14.60;99.90;;;-141.84;63.77;19614.66;5093154;28;20228;-62
2022/09/19 09:34:56;;;;;;;4.40;4.00;;;14.50;99.90;;;-141.84;65.68;19504.94;5093117;28;20226;-63
2022/09/19 09:37:32;;;;;;;4.82;4.43;;;14.30;99.90;;;-141.84;66.75;19415.50;5093211;28;20219;-64
2022/09/19 09:40:12;;;;;;;4.80;4.22;;;14.20;99.90;;;-141.84;68.31;19326.09;5093397;28;20184;-61
2022/09/19 09:42:50;;;;;;;5.07;4.55;;;14.00;99.90;;;-141.84;69.50;19192.00;5093696;28;20180;-62
2022/09/19 09:45:30;;;;;;;4.75;4.35;;;13.60;99.90;;;-141.84;71.85;19147.28;5093458;28;20667;-62
2022/09/19 09:48:14;;;;;;;4.27;3.33;;;13.50;99.90;;;-141.84;70.08;19171.66;5093241;28;20228;-63
2022/09/19 09:51:10;;;;;;;4.53;3.40;;;13.30;99.90;;;-141.84;71.85;19057.88;5093053;28;20232;-62
2022/09/19 09:56:14;;;;;;;3.87;3.57;;;13.10;99.90;;;-141.84;73.96;19005.03;5092793;28;20228;-62
2022/09/19 09:57:13;;;;;;;3.70;3.40;;;12.90;99.90;;;-141.84;75.27;18929.88;5092660;28;20232;-64
2022/09/19 10:05:45;;;;;;;2.93;2.73;;;12.30;99.90;;;-141.84;78.51;18771.38;5092701;28;20710;-64
2022/09/19 10:08:22;;;;;;;3.43;2.97;;;12.20;99.90;;;-141.84;79.03;18773.41;5092528;28;20230;-63
2022/09/19 10:11:02;;;;;;;3.03;2.73;;;12.30;99.90;;;-141.84;75.91;18814.03;5092592;28;20223;-62
2022/09/19 10:13:39;;;;;;;2.60;2.40;;;12.50;99.90;;;-141.84;74.89;18897.34;5092328;28;20664;-62
2022/09/19 10:16:08;;;;;;;2.60;2.40;;;12.80;99.90;;;-141.84;72.31;19029.44;5057987;28;20223;-62
2022/09/19 10:18:46;;;;;;;3.80;2.57;;;13.20;99.90;;;-141.84;69.23;19147.28;5092877;28;20200;-64
2022/09/19 10:21:14;;;;;;;3.83;2.77;;;13.70;99.90;;;-141.84;68.61;19281.41;5092898;28;20200;-62
2022/09/19 10:23:45;;;;;;;2.95;2.67;;;14.20;99.90;;;-141.84;68.46;19259.03;5091995;28;20227;-63
2022/09/19 10:26:19;;;;;;;4.95;3.60;;;14.50;99.90;;;-141.84;67.28;19378.94;5092126;28;20238;-65
2022/09/19 10:28:52;;;;;;;4.10;3.80;;;14.70;99.90;;;-141.84;66.41;19443.97;5092269;28;20232;-64
2022/09/19 10:31:33;;;;;;;5.55;4.60;;;14.80;99.90;;;-141.84;66.34;19502.91;5092056;28;20732;-62
2022/09/19 10:34:04;;;;;;;4.72;4.32;;;14.90;99.90;;;-141.84;65.67;19537.44;5092011;28;20278;-63
2022/09/19 10:36:34;;;;;;;5.45;4.05;;;15.00;99.90;;;-141.84;65.15;19604.50;5092825;28;20188;-62
2022/09/19 10:39:14;;;;;;;5.97;4.30;;;15.00;99.90;;;-141.84;65.74;19582.16;5091872;28;20231;-63
2022/09/19 10:41:43;;;;;;;4.93;4.22;;;15.10;99.90;;;-141.84;64.29;19716.28;5092159;28;20280;-63
2022/09/19 10:44:22;;;;;;;4.95;4.00;;;15.40;99.90;;;-141.84;63.59;19769.13;5091835;28;20242;-63
2022/09/19 10:46:55;;;;;;;6.35;3.55;;;15.40;99.90;;;-141.84;64.26;19726.44;5091945;28;20718;-62
2022/09/19 10:49:28;;;;;;;4.43;3.60;;;15.40;99.90;;;-141.84;64.71;19704.09;5092138;28;20223;-63